sensor_id;sensor_type;location;lat;lon;timestamp;pressure;altitude;pressure_sealevel;temperature;humidity
60897;BME280;46749;32.932;-117.130;2023-03-01T00:02:14;100563.03;;;20.19;48.77
60897;BME280;46749;32.932;-117.130;2023-03-01T00:04:40;100550.72;;;20.16;48.74
60897;BME280;46749;32.932;-117.130;2023-03-01T00:07:06;100548.09;;;20.13;48.52
60897;BME280;46749;32.932;-117.130;2023-03-01T00:09:32;100553.38;;;20.10;48.68
60897;BME280;46749;32.932;-117.130;2023-03-01T00:11:58;100540.22;;;20.07;48.25
60897;BME280;46749;32.932;-117.130;2023-03-01T00:14:25;100535.84;;;20.06;48.79
60897;BME280;46749;32.932;-117.130;2023-03-01T00:16:51;100534.94;;;20.04;48.38
60897;BME280;46749;32.932;-117.130;2023-03-01T00:19:19;100529.72;;;20.01;48.91
60897;BME280;46749;32.932;-117.130;2023-03-01T00:21:46;100530.59;;;19.99;48.46
60897;BME280;46749;32.932;-117.130;2023-03-01T00:24:12;100530.63;;;19.96;48.68
60897;BME280;46749;32.932;-117.130;2023-03-01T00:26:38;100526.25;;;19.93;48.69
60897;BME280;46749;32.932;-117.130;2023-03-01T00:29:05;100518.31;;;19.91;48.95
60897;BME280;46749;32.932;-117.130;2023-03-01T00:31:32;100527.13;;;19.90;48.79
60897;BME280;46749;32.932;-117.130;2023-03-01T00:34:04;100529.78;;;19.89;48.75
60897;BME280;46749;32.932;-117.130;2023-03-01T00:36:36;100525.41;;;19.86;48.65
60897;BME280;46749;32.932;-117.130;2023-03-01T00:39:04;100527.16;;;19.83;48.99
60897;BME280;46749;32.932;-117.130;2023-03-01T00:41:31;100529.81;;;19.80;49.03
60897;BME280;46749;32.932;-117.130;2023-03-01T00:43:57;100526.31;;;19.78;49.08
60897;BME280;46749;32.932;-117.130;2023-03-01T00:46:25;100524.56;;;19.75;49.04
60897;BME280;46749;32.932;-117.130;2023-03-01T00:48:52;100530.72;;;19.76;48.74
60897;BME280;46749;32.932;-117.130;2023-03-01T00:51:21;100527.22;;;19.74;49.23
60897;BME280;46749;32.932;-117.130;2023-03-01T00:53:54;100529.84;;;19.71;49.06
60897;BME280;46749;32.932;-117.130;2023-03-01T00:56:20;100539.53;;;19.69;49.06
60897;BME280;46749;32.932;-117.130;2023-03-01T00:58:46;100529.88;;;19.66;48.89
60897;BME280;46749;32.932;-117.130;2023-03-01T01:01:16;100522.88;;;19.63;49.18
60897;BME280;46749;32.932;-117.130;2023-03-01T01:03:51;100520.25;;;19.62;48.74
60897;BME280;46749;32.932;-117.130;2023-03-01T01:06:24;100524.63;;;19.61;48.73
60897;BME280;46749;32.932;-117.130;2023-03-01T01:08:52;100514.97;;;19.59;48.90
60897;BME280;46749;32.932;-117.130;2023-03-01T01:11:39;100524.63;;;19.58;48.81
60897;BME280;46749;32.932;-117.130;2023-03-01T01:14:04;100523.75;;;19.56;49.18
60897;BME280;46749;32.932;-117.130;2023-03-01T01:16:31;100516.72;;;19.58;48.86
60897;BME280;46749;32.932;-117.130;2023-03-01T01:18:57;100509.69;;;19.56;49.29
60897;BME280;46749;32.932;-117.130;2023-03-01T01:21:24;100508.81;;;19.55;49.30
60897;BME280;46749;32.932;-117.130;2023-03-01T01:23:51;100507.03;;;19.54;49.26
60897;BME280;46749;32.932;-117.130;2023-03-01T01:26:23;100495.66;;;19.55;48.92
60897;BME280;46749;32.932;-117.130;2023-03-01T01:28:50;100503.53;;;19.57;49.25
60897;BME280;46749;32.932;-117.130;2023-03-01T01:31:17;100507.94;;;19.55;49.50
60897;BME280;46749;32.932;-117.130;2023-03-01T01:33:44;100507.03;;;19.54;49.50
60897;BME280;46749;32.932;-117.130;2023-03-01T01:36:11;100508.81;;;19.52;49.43
60897;BME280;46749;32.932;-117.130;2023-03-01T01:38:38;100516.72;;;19.51;49.46
60897;BME280;46749;32.932;-117.130;2023-03-01T01:41:05;100515.84;;;19.52;49.64
60897;BME280;46749;32.932;-117.130;2023-03-01T01:43:38;100514.97;;;19.51;49.35
60897;BME280;46749;32.932;-117.130;2023-03-01T01:46:31;100519.38;;;19.49;49.79
60897;BME280;46749;32.932;-117.130;2023-03-01T01:49:01;100516.72;;;19.48;49.45
60897;BME280;46749;32.932;-117.130;2023-03-01T01:51:33;100515.84;;;19.47;49.74
60897;BME280;46749;32.932;-117.130;2023-03-01T01:54:21;100502.69;;;19.47;49.36
60897;BME280;46749;32.932;-117.130;2023-03-01T01:56:55;100509.72;;;19.47;49.76
60897;BME280;46749;32.932;-117.130;2023-03-01T01:59:23;100520.25;;;19.50;49.64
60897;BME280;46749;32.932;-117.130;2023-03-01T02:01:54;100517.56;;;19.54;49.89
60897;BME280;46749;32.932;-117.130;2023-03-01T02:04:21;100528.13;;;19.59;49.76
60897;BME280;46749;32.932;-117.130;2023-03-01T02:06:53;100535.16;;;19.64;49.75
60897;BME280;46749;32.932;-117.130;2023-03-01T02:09:24;100531.59;;;19.72;49.77
60897;BME280;46749;32.932;-117.130;2023-03-01T02:11:51;100533.34;;;19.76;49.47
60897;BME280;46749;32.932;-117.130;2023-03-01T02:14:18;100524.53;;;19.78;49.61
60897;BME280;46749;32.932;-117.130;2023-03-01T02:16:44;100528.06;;;19.82;49.67
60897;BME280;46749;32.932;-117.130;2023-03-01T02:19:21;100520.13;;;19.83;49.51
60897;BME280;46749;32.932;-117.130;2023-03-01T02:22:22;100512.22;;;19.85;49.37
60897;BME280;46749;32.932;-117.130;2023-03-01T02:25:36;100523.63;;;19.90;49.57
60897;BME280;46749;32.932;-117.130;2023-03-01T02:30:11;100533.25;;;19.96;49.14
60897;BME280;46749;32.932;-117.130;2023-03-01T02:32:40;100528.00;;;19.91;49.45
60897;BME280;46749;32.932;-117.130;2023-03-01T02:35:14;100532.44;;;19.87;49.44
60897;BME280;46749;32.932;-117.130;2023-03-01T02:37:42;100530.69;;;19.83;49.64
60897;BME280;46749;32.932;-117.130;2023-03-01T02:40:12;100525.44;;;19.80;49.82
60897;BME280;46749;32.932;-117.130;2023-03-01T02:42:51;100527.16;;;19.80;49.97
60897;BME280;46749;32.932;-117.130;2023-03-01T02:45:18;100519.25;;;19.80;49.82
60897;BME280;46749;32.932;-117.130;2023-03-01T02:47:45;100519.25;;;19.80;49.74
60897;BME280;46749;32.932;-117.130;2023-03-01T02:53:39;100516.66;;;19.77;49.71
60897;BME280;46749;32.932;-117.130;2023-03-01T02:56:04;100527.19;;;19.78;50.07
60897;BME280;46749;32.932;-117.130;2023-03-01T02:58:30;100512.25;;;19.79;49.92
60897;BME280;46749;32.932;-117.130;2023-03-01T03:00:56;100511.38;;;19.78;50.25
60897;BME280;46749;32.932;-117.130;2023-03-01T03:03:23;100520.16;;;19.79;50.24
60897;BME280;46749;32.932;-117.130;2023-03-01T03:05:49;100525.44;;;19.77;50.01
60897;BME280;46749;32.932;-117.130;2023-03-01T03:08:15;100540.38;;;19.77;49.85
60897;BME280;46749;32.932;-117.130;2023-03-01T03:10:49;100540.34;;;19.78;49.95
60897;BME280;46749;32.932;-117.130;2023-03-01T03:13:15;100545.63;;;19.80;50.25
60897;BME280;46749;32.932;-117.130;2023-03-01T03:15:43;100551.78;;;19.79;49.82
60897;BME280;46749;32.932;-117.130;2023-03-01T03:18:13;100552.66;;;19.78;50.07
60897;BME280;46749;32.932;-117.130;2023-03-01T03:20:41;100560.56;;;19.78;50.19
60897;BME280;46749;32.932;-117.130;2023-03-01T03:23:08;100559.69;;;19.79;49.79
60897;BME280;46749;32.932;-117.130;2023-03-01T03:25:34;100544.75;;;19.81;49.89
60897;BME280;46749;32.932;-117.130;2023-03-01T03:28:04;100549.13;;;19.79;49.87
60897;BME280;46749;32.932;-117.130;2023-03-01T03:30:37;100550.91;;;19.77;50.24
60897;BME280;46749;32.932;-117.130;2023-03-01T03:33:05;100549.16;;;19.73;49.87
60897;BME280;46749;32.932;-117.130;2023-03-01T03:35:37;100542.16;;;19.69;50.08
60897;BME280;46749;32.932;-117.130;2023-03-01T03:38:07;100540.41;;;19.64;50.07
60897;BME280;46749;32.932;-117.130;2023-03-01T03:40:39;100548.34;;;19.61;50.05
60897;BME280;46749;32.932;-117.130;2023-03-01T03:43:12;100533.38;;;19.57;49.63
60897;BME280;46749;32.932;-117.130;2023-03-01T03:45:38;100526.38;;;19.55;49.98
60897;BME280;46749;32.932;-117.130;2023-03-01T03:48:07;100524.63;;;19.52;49.84
60897;BME280;46749;32.932;-117.130;2023-03-01T03:50:33;100515.84;;;19.50;49.96
60897;BME280;46749;32.932;-117.130;2023-03-01T03:53:06;100517.59;;;19.48;49.75
60897;BME280;46749;32.932;-117.130;2023-03-01T03:55:33;100508.84;;;19.45;49.54
60897;BME280;46749;32.932;-117.130;2023-03-01T03:58:01;100507.09;;;19.42;49.57
60897;BME280;46749;32.932;-117.130;2023-03-01T04:00:37;100507.09;;;19.39;49.44
60897;BME280;46749;32.932;-117.130;2023-03-01T04:03:04;100510.63;;;19.35;49.78
60897;BME280;46749;32.932;-117.130;2023-03-01T04:05:30;100508.88;;;19.34;49.82
60897;BME280;46749;32.932;-117.130;2023-03-01T04:07:57;100510.66;;;19.32;49.57
60897;BME280;46749;32.932;-117.130;2023-03-01T04:10:31;100519.44;;;19.31;50.01
60897;BME280;46749;32.932;-117.130;2023-03-01T04:12:57;100528.19;;;19.28;49.79
60897;BME280;46749;32.932;-117.130;2023-03-01T04:15:27;100523.81;;;19.26;49.79
60897;BME280;46749;32.932;-117.130;2023-03-01T04:17:54;100522.94;;;19.22;49.74
60897;BME280;46749;32.932;-117.130;2023-03-01T04:20:27;100522.06;;;19.22;49.62
60897;BME280;46749;32.932;-117.130;2023-03-01T04:23:01;100514.19;;;19.19;49.55
60897;BME280;46749;32.932;-117.130;2023-03-01T04:25:40;100512.44;;;19.18;49.90
60897;BME280;46749;32.932;-117.130;2023-03-01T04:28:08;100520.31;;;19.16;49.71
60897;BME280;46749;32.932;-117.130;2023-03-01T04:30:35;100512.44;;;19.13;49.61
60897;BME280;46749;32.932;-117.130;2023-03-01T04:33:06;100511.59;;;19.11;49.57
60897;BME280;46749;32.932;-117.130;2023-03-01T04:35:33;100518.59;;;19.09;49.82
60897;BME280;46749;32.932;-117.130;2023-03-01T04:38:00;100515.09;;;19.07;49.58
60897;BME280;46749;32.932;-117.130;2023-03-01T04:40:27;100520.38;;;19.05;49.70
60897;BME280;46749;32.932;-117.130;2023-03-01T04:42:53;100521.22;;;19.04;49.92
60897;BME280;46749;32.932;-117.130;2023-03-01T04:45:19;100519.47;;;19.02;49.52
60897;BME280;46749;32.932;-117.130;2023-03-01T04:47:46;100519.50;;;19.00;49.69
60897;BME280;46749;32.932;-117.130;2023-03-01T04:50:15;100510.72;;;18.98;49.53
60897;BME280;46749;32.932;-117.130;2023-03-01T04:52:44;100515.97;;;18.97;49.84
60897;BME280;46749;32.932;-117.130;2023-03-01T04:55:11;100514.22;;;18.94;49.64
60897;BME280;46749;32.932;-117.130;2023-03-01T04:57:38;100513.34;;;18.94;49.85
60897;BME280;46749;32.932;-117.130;2023-03-01T05:00:06;100521.25;;;18.92;49.64
60897;BME280;46749;32.932;-117.130;2023-03-01T05:02:56;100510.72;;;18.89;49.65
60897;BME280;46749;32.932;-117.130;2023-03-01T05:05:29;100519.50;;;18.88;49.86
60897;BME280;46749;32.932;-117.130;2023-03-01T05:07:58;100518.63;;;18.86;49.48
60897;BME280;46749;32.932;-117.130;2023-03-01T05:10:26;100514.22;;;18.83;49.66
60897;BME280;46749;32.932;-117.130;2023-03-01T05:12:55;100523.88;;;18.83;49.61
60897;BME280;46749;32.932;-117.130;2023-03-01T05:15:24;100524.75;;;18.82;49.50
60897;BME280;46749;32.932;-117.130;2023-03-01T05:17:55;100522.16;;;18.80;50.01
60897;BME280;46749;32.932;-117.130;2023-03-01T05:20:28;100514.22;;;18.79;49.64
60897;BME280;46749;32.932;-117.130;2023-03-01T05:22:59;100498.47;;;18.76;49.62
60897;BME280;46749;32.932;-117.130;2023-03-01T05:25:26;100509.88;;;18.75;49.72
60897;BME280;46749;32.932;-117.130;2023-03-01T05:28:00;100501.09;;;18.71;49.83
60897;BME280;46749;32.932;-117.130;2023-03-01T05:30:34;100508.97;;;18.70;49.71
60897;BME280;46749;32.932;-117.130;2023-03-01T05:33:00;100500.22;;;18.69;49.72
60897;BME280;46749;32.932;-117.130;2023-03-01T05:35:27;100506.38;;;18.68;49.53
60897;BME280;46749;32.932;-117.130;2023-03-01T05:37:55;100502.78;;;18.66;49.86
60897;BME280;46749;32.932;-117.130;2023-03-01T05:40:23;100492.28;;;18.65;49.72
60897;BME280;46749;32.932;-117.130;2023-03-01T05:42:56;100494.06;;;18.63;49.71
60897;BME280;46749;32.932;-117.130;2023-03-01T05:45:24;100487.94;;;18.60;49.79
60897;BME280;46749;32.932;-117.130;2023-03-01T05:47:51;100488.78;;;18.59;49.73
60897;BME280;46749;32.932;-117.130;2023-03-01T05:50:23;100497.53;;;18.58;49.36
60897;BME280;46749;32.932;-117.130;2023-03-01T05:52:58;100490.53;;;18.56;49.72
60897;BME280;46749;32.932;-117.130;2023-03-01T05:55:26;100494.06;;;18.55;49.80
60897;BME280;46749;32.932;-117.130;2023-03-01T05:57:53;100493.16;;;18.53;49.69
60897;BME280;46749;32.932;-117.130;2023-03-01T06:00:20;100495.78;;;18.51;49.43
60897;BME280;46749;32.932;-117.130;2023-03-01T06:02:49;100490.56;;;18.48;49.74
60897;BME280;46749;32.932;-117.130;2023-03-01T06:05:17;100490.53;;;18.47;49.40
60897;BME280;46749;32.932;-117.130;2023-03-01T06:07:44;100492.28;;;18.45;49.36
60897;BME280;46749;32.932;-117.130;2023-03-01T06:10:11;100500.19;;;18.43;49.45
60897;BME280;46749;32.932;-117.130;2023-03-01T06:12:39;100505.44;;;18.40;49.43
60897;BME280;46749;32.932;-117.130;2023-03-01T06:15:07;100503.69;;;18.39;49.39
60897;BME280;46749;32.932;-117.130;2023-03-01T06:17:36;100505.44;;;18.37;49.50
60897;BME280;46749;32.932;-117.130;2023-03-01T06:20:19;100500.16;;;18.34;49.53
60897;BME280;46749;32.932;-117.130;2023-03-01T06:22:47;100501.03;;;18.33;49.23
60897;BME280;46749;32.932;-117.130;2023-03-01T06:25:15;100487.91;;;18.30;49.65
60897;BME280;46749;32.932;-117.130;2023-03-01T06:27:43;100486.13;;;18.29;49.09
60897;BME280;46749;32.932;-117.130;2023-03-01T06:30:11;100486.13;;;18.26;49.33
60897;BME280;46749;32.932;-117.130;2023-03-01T06:32:40;100493.16;;;18.24;49.36
60897;BME280;46749;32.932;-117.130;2023-03-01T06:35:11;100498.38;;;18.21;49.14
60897;BME280;46749;32.932;-117.130;2023-03-01T06:37:38;100490.50;;;18.19;49.34
60897;BME280;46749;32.932;-117.130;2023-03-01T06:40:05;100492.28;;;18.17;49.15
60897;BME280;46749;32.932;-117.130;2023-03-01T06:42:41;100494.88;;;18.16;49.21
60897;BME280;46749;32.932;-117.130;2023-03-01T06:45:08;100498.38;;;18.13;49.30
60897;BME280;46749;32.932;-117.130;2023-03-01T06:47:34;100499.28;;;18.11;49.16
60897;BME280;46749;32.932;-117.130;2023-03-01T06:50:02;100502.75;;;18.10;49.18
60897;BME280;46749;32.932;-117.130;2023-03-01T06:52:28;100501.00;;;18.07;49.06
60897;BME280;46749;32.932;-117.130;2023-03-01T06:54:55;100503.63;;;18.05;49.04
60897;BME280;46749;32.932;-117.130;2023-03-01T06:57:21;100502.72;;;18.03;49.11
60897;BME280;46749;32.932;-117.130;2023-03-01T06:59:48;100502.75;;;18.02;49.12
60897;BME280;46749;32.932;-117.130;2023-03-01T07:02:14;100501.00;;;17.99;49.05
60897;BME280;46749;32.932;-117.130;2023-03-01T07:04:41;100509.75;;;17.98;48.98
60897;BME280;46749;32.932;-117.130;2023-03-01T07:07:07;100512.34;;;17.95;49.08
60897;BME280;46749;32.932;-117.130;2023-03-01T07:09:34;100504.47;;;17.94;48.94
60897;BME280;46749;32.932;-117.130;2023-03-01T07:12:01;100501.84;;;17.92;48.97
60897;BME280;46749;32.932;-117.130;2023-03-01T07:14:27;100523.72;;;17.91;49.05
60897;BME280;46749;32.932;-117.130;2023-03-01T07:16:54;100520.22;;;17.89;48.77
60897;BME280;46749;32.932;-117.130;2023-03-01T07:19:21;100503.59;;;17.87;48.89
60897;BME280;46749;32.932;-117.130;2023-03-01T07:21:47;100509.69;;;17.85;48.83
60897;BME280;46749;32.932;-117.130;2023-03-01T07:24:13;100506.19;;;17.84;48.81
60897;BME280;46749;32.932;-117.130;2023-03-01T07:26:39;100508.81;;;17.81;48.97
60897;BME280;46749;32.932;-117.130;2023-03-01T07:29:07;100503.56;;;17.79;48.95
60897;BME280;46749;32.932;-117.130;2023-03-01T07:31:35;100493.91;;;17.78;48.76
60897;BME280;46749;32.932;-117.130;2023-03-01T07:34:02;100490.41;;;17.76;48.79
60897;BME280;46749;32.932;-117.130;2023-03-01T07:36:29;100492.16;;;17.74;48.63
60897;BME280;46749;32.932;-117.130;2023-03-01T07:38:55;100481.66;;;17.73;48.69
60897;BME280;46749;32.932;-117.130;2023-03-01T07:41:21;100487.75;;;17.72;48.56
60897;BME280;46749;32.932;-117.130;2023-03-01T07:43:48;100482.47;;;17.69;48.78
60897;BME280;46749;32.932;-117.130;2023-03-01T07:46:14;100482.47;;;17.67;48.74
60897;BME280;46749;32.932;-117.130;2023-03-01T07:48:40;100483.34;;;17.66;48.71
60897;BME280;46749;32.932;-117.130;2023-03-01T07:51:07;100485.94;;;17.65;48.71
60897;BME280;46749;32.932;-117.130;2023-03-01T07:53:34;100482.44;;;17.63;48.53
60897;BME280;46749;32.932;-117.130;2023-03-01T07:56:11;100483.31;;;17.62;48.63
60897;BME280;46749;32.932;-117.130;2023-03-01T07:58:40;100479.78;;;17.60;48.61
60897;BME280;46749;32.932;-117.130;2023-03-01T08:01:10;100487.69;;;17.57;48.73
60897;BME280;46749;32.932;-117.130;2023-03-01T08:03:38;100487.69;;;17.57;48.53
60897;BME280;46749;32.932;-117.130;2023-03-01T08:06:06;100495.53;;;17.53;48.80
60897;BME280;46749;32.932;-117.130;2023-03-01T08:08:33;100493.78;;;17.52;48.55
60897;BME280;46749;32.932;-117.130;2023-03-01T08:11:01;100500.78;;;17.50;48.60
60897;BME280;46749;32.932;-117.130;2023-03-01T08:13:28;100510.41;;;17.48;48.50
60897;BME280;46749;32.932;-117.130;2023-03-01T08:15:59;100505.13;;;17.47;48.50
60897;BME280;46749;32.932;-117.130;2023-03-01T08:18:26;100499.00;;;17.45;48.45
60897;BME280;46749;32.932;-117.130;2023-03-01T08:20:52;100499.00;;;17.43;48.51
60897;BME280;46749;32.932;-117.130;2023-03-01T08:23:18;100507.75;;;17.42;48.55
60897;BME280;46749;32.932;-117.130;2023-03-01T08:25:44;100512.09;;;17.40;48.63
60897;BME280;46749;32.932;-117.130;2023-03-01T08:28:10;100510.34;;;17.38;48.60
60897;BME280;46749;32.932;-117.130;2023-03-01T08:30:37;100506.84;;;17.37;48.47
60897;BME280;46749;32.932;-117.130;2023-03-01T08:33:03;100510.34;;;17.36;48.50
60897;BME280;46749;32.932;-117.130;2023-03-01T08:35:29;100501.56;;;17.34;48.50
60897;BME280;46749;32.932;-117.130;2023-03-01T08:37:55;100500.69;;;17.32;48.43
60897;BME280;46749;32.932;-117.130;2023-03-01T08:40:21;100501.56;;;17.31;48.52
60897;BME280;46749;32.932;-117.130;2023-03-01T08:42:47;100491.03;;;17.28;48.33
60897;BME280;46749;32.932;-117.130;2023-03-01T08:45:14;100498.03;;;17.26;48.46
60897;BME280;46749;32.932;-117.130;2023-03-01T08:47:44;100491.03;;;17.25;48.51
60897;BME280;46749;32.932;-117.130;2023-03-01T08:50:11;100485.78;;;17.23;48.41
60897;BME280;46749;32.932;-117.130;2023-03-01T08:52:37;100483.13;;;17.22;48.20
60897;BME280;46749;32.932;-117.130;2023-03-01T08:55:04;100492.75;;;17.20;48.52
60897;BME280;46749;32.932;-117.130;2023-03-01T08:57:30;100478.75;;;17.18;48.39
60897;BME280;46749;32.932;-117.130;2023-03-01T08:59:56;100484.88;;;17.17;48.35
60897;BME280;46749;32.932;-117.130;2023-03-01T09:02:22;100483.97;;;17.15;48.47
60897;BME280;46749;32.932;-117.130;2023-03-01T09:04:49;100480.47;;;17.13;48.37
60897;BME280;46749;32.932;-117.130;2023-03-01T09:07:15;100483.09;;;17.11;48.29
60897;BME280;46749;32.932;-117.130;2023-03-01T09:09:41;100483.09;;;17.10;48.46
60897;BME280;46749;32.932;-117.130;2023-03-01T09:12:07;100483.94;;;17.09;48.27
60897;BME280;46749;32.932;-117.130;2023-03-01T09:14:34;100478.69;;;17.06;48.28
60897;BME280;46749;32.932;-117.130;2023-03-01T09:17:00;100474.31;;;17.05;48.33
60897;BME280;46749;32.932;-117.130;2023-03-01T09:19:28;100473.38;;;17.03;48.29
60897;BME280;46749;32.932;-117.130;2023-03-01T09:21:55;100464.66;;;17.01;48.21
60897;BME280;46749;32.932;-117.130;2023-03-01T09:24:23;100466.41;;;17.00;48.24
60897;BME280;46749;32.932;-117.130;2023-03-01T09:26:50;100455.88;;;16.97;48.37
60897;BME280;46749;32.932;-117.130;2023-03-01T09:29:18;100455.00;;;16.96;48.31
60897;BME280;46749;32.932;-117.130;2023-03-01T09:31:45;100462.00;;;16.94;48.34
60897;BME280;46749;32.932;-117.130;2023-03-01T09:34:11;100472.47;;;16.93;48.26
60897;BME280;46749;32.932;-117.130;2023-03-01T09:36:39;100467.22;;;16.91;48.19
60897;BME280;46749;32.932;-117.130;2023-03-01T09:39:05;100471.56;;;16.89;48.31
60897;BME280;46749;32.932;-117.130;2023-03-01T09:44:29;100464.56;;;16.85;48.39
60897;BME280;46749;32.932;-117.130;2023-03-01T09:46:57;100458.41;;;16.83;48.34
60897;BME280;46749;32.932;-117.130;2023-03-01T09:49:27;100463.66;;;16.82;48.37
60897;BME280;46749;32.932;-117.130;2023-03-01T09:54:45;100472.38;;;16.79;48.22
60897;BME280;46749;32.932;-117.130;2023-03-01T09:57:30;100468.84;;;16.76;48.19
60897;BME280;46749;32.932;-117.130;2023-03-01T10:05:21;100467.97;;;16.72;48.21
60897;BME280;46749;32.932;-117.130;2023-03-01T10:08:25;100462.66;;;16.69;48.29
60897;BME280;46749;32.932;-117.130;2023-03-01T10:10:53;100472.28;;;16.68;48.30
60897;BME280;46749;32.932;-117.130;2023-03-01T10:16:10;100453.88;;;16.65;48.18
60897;BME280;46749;32.932;-117.130;2023-03-01T10:18:38;100452.13;;;16.63;48.13
60897;BME280;46749;32.932;-117.130;2023-03-01T10:21:18;100443.38;;;16.61;48.07
60897;BME280;46749;32.932;-117.130;2023-03-01T10:23:45;100452.13;;;16.60;48.18
60897;BME280;46749;32.932;-117.130;2023-03-01T10:26:48;100452.06;;;16.57;48.24
60897;BME280;46749;32.932;-117.130;2023-03-01T10:29:23;100445.09;;;16.57;48.25
60897;BME280;46749;32.932;-117.130;2023-03-01T10:31:52;100432.84;;;16.55;48.26
60897;BME280;46749;32.932;-117.130;2023-03-01T10:34:21;100439.81;;;16.53;48.26
60897;BME280;46749;32.932;-117.130;2023-03-01T10:36:50;100437.16;;;16.51;48.15
60897;BME280;46749;32.932;-117.130;2023-03-01T10:39:22;100440.66;;;16.50;48.13
60897;BME280;46749;32.932;-117.130;2023-03-01T10:42:04;100428.44;;;16.48;48.20
60897;BME280;46749;32.932;-117.130;2023-03-01T10:44:47;100434.50;;;16.46;48.07
60897;BME280;46749;32.932;-117.130;2023-03-01T10:47:25;100437.13;;;16.43;48.05
60897;BME280;46749;32.932;-117.130;2023-03-01T10:50:19;100434.50;;;16.42;48.00
60897;BME280;46749;32.932;-117.130;2023-03-01T10:53:02;100430.09;;;16.39;48.19
60897;BME280;46749;32.932;-117.130;2023-03-01T11:01:01;100419.59;;;16.35;48.00
60897;BME280;46749;32.932;-117.130;2023-03-01T11:03:38;100414.31;;;16.33;48.05
60897;BME280;46749;32.932;-117.130;2023-03-01T11:06:20;100405.56;;;16.33;48.06
60897;BME280;46749;32.932;-117.130;2023-03-01T11:08:49;100406.44;;;16.33;48.12
60897;BME280;46749;32.932;-117.130;2023-03-01T11:11:33;100401.19;;;16.30;48.31
60897;BME280;46749;32.932;-117.130;2023-03-01T11:14:11;100401.19;;;16.30;48.17
60897;BME280;46749;32.932;-117.130;2023-03-01T11:16:41;100402.94;;;16.28;48.26
60897;BME280;46749;32.932;-117.130;2023-03-01T11:24:13;100403.78;;;16.24;48.12
60897;BME280;46749;32.932;-117.130;2023-03-01T11:26:43;100416.88;;;16.23;48.16
60897;BME280;46749;32.932;-117.130;2023-03-01T11:31:49;100403.72;;;16.19;48.09
60897;BME280;46749;32.932;-117.130;2023-03-01T11:34:23;100408.09;;;16.19;48.10
60897;BME280;46749;32.932;-117.130;2023-03-01T11:36:58;100409.84;;;16.17;48.09
60897;BME280;46749;32.932;-117.130;2023-03-01T11:39:31;100402.84;;;16.16;48.11
60897;BME280;46749;32.932;-117.130;2023-03-01T11:44:37;100420.28;;;16.14;48.19
60897;BME280;46749;32.932;-117.130;2023-03-01T11:50:08;100434.22;;;16.11;48.10
60897;BME280;46749;32.932;-117.130;2023-03-01T11:56:03;100436.81;;;16.08;48.15
60897;BME280;46749;32.932;-117.130;2023-03-01T12:01:39;100445.53;;;16.06;48.13
60897;BME280;46749;32.932;-117.130;2023-03-01T12:07:00;100438.53;;;16.03;47.85
60897;BME280;46749;32.932;-117.130;2023-03-01T12:09:58;100447.22;;;15.99;48.00
60897;BME280;46749;32.932;-117.130;2023-03-01T12:26:35;100479.44;;;15.94;48.31
60897;BME280;46749;32.932;-117.130;2023-03-01T12:29:28;100468.97;;;15.92;48.08
60897;BME280;46749;32.932;-117.130;2023-03-01T12:32:19;100486.44;;;15.91;48.24
60897;BME280;46749;32.932;-117.130;2023-03-01T12:37:56;100489.88;;;15.87;48.11
60897;BME280;46749;32.932;-117.130;2023-03-01T12:40:58;100485.50;;;15.86;48.30
60897;BME280;46749;32.932;-117.130;2023-03-01T12:46:28;100499.47;;;15.87;48.02
60897;BME280;46749;32.932;-117.130;2023-03-01T12:49:17;100504.69;;;15.85;48.21
60897;BME280;46749;32.932;-117.130;2023-03-01T12:51:54;100511.63;;;15.83;48.26
60897;BME280;46749;32.932;-117.130;2023-03-01T12:54:28;100518.59;;;15.83;48.03
60897;BME280;46749;32.932;-117.130;2023-03-01T12:56:57;100509.00;;;15.80;48.18
60897;BME280;46749;32.932;-117.130;2023-03-01T12:59:39;100524.66;;;15.77;48.01
60897;BME280;46749;32.932;-117.130;2023-03-01T13:02:36;100518.53;;;15.77;47.90
60897;BME280;46749;32.932;-117.130;2023-03-01T13:08:08;100538.59;;;15.76;48.02
60897;BME280;46749;32.932;-117.130;2023-03-01T13:13:21;100553.44;;;15.74;48.38
60897;BME280;46749;32.932;-117.130;2023-03-01T13:15:48;100545.56;;;15.74;48.07
60897;BME280;46749;32.932;-117.130;2023-03-01T13:20:50;100563.84;;;15.71;48.00
60897;BME280;46749;32.932;-117.130;2023-03-01T13:28:50;100589.13;;;15.66;48.03
60897;BME280;46749;32.932;-117.130;2023-03-01T13:33:59;100604.81;;;15.66;48.04
60897;BME280;46749;32.932;-117.130;2023-03-01T13:36:48;100604.81;;;15.66;48.02
60897;BME280;46749;32.932;-117.130;2023-03-01T13:39:32;100619.63;;;15.64;48.24
60897;BME280;46749;32.932;-117.130;2023-03-01T13:42:30;100633.56;;;15.63;48.02
60897;BME280;46749;32.932;-117.130;2023-03-01T13:44:57;100633.50;;;15.61;48.18
60897;BME280;46749;32.932;-117.130;2023-03-01T13:47:24;100636.13;;;15.60;48.15
60897;BME280;46749;32.932;-117.130;2023-03-01T13:50:15;100635.19;;;15.58;48.21
60897;BME280;46749;32.932;-117.130;2023-03-01T13:52:58;100649.16;;;15.57;48.02
60897;BME280;46749;32.932;-117.130;2023-03-01T13:55:46;100657.00;;;15.57;48.12
60897;BME280;46749;32.932;-117.130;2023-03-01T13:58:43;100659.63;;;15.57;47.98
60897;BME280;46749;32.932;-117.130;2023-03-01T14:01:25;100670.94;;;15.56;48.22
60897;BME280;46749;32.932;-117.130;2023-03-01T14:03:52;100669.19;;;15.55;48.08